sensor_id;sensor_type;location;lat;lon;timestamp;P1;durP1;ratioP1;P2;durP2;ratioP2
63087;SDS011;49173;43.164;27.786;2022-09-28T00:00:27;5.72;;;2.70;;
63087;SDS011;49173;43.164;27.786;2022-09-28T00:02:55;4.85;;;2.22;;
63087;SDS011;49173;43.164;27.786;2022-09-28T00:05:22;2.85;;;2.17;;
63087;SDS011;49173;43.164;27.786;2022-09-28T00:07:52;4.10;;;2.33;;
63087;SDS011;49173;43.164;27.786;2022-09-28T00:10:18;4.55;;;2.35;;
63087;SDS011;49173;43.164;27.786;2022-09-28T00:12:50;4.13;;;2.30;;
63087;SDS011;49173;43.164;27.786;2022-09-28T00:15:19;6.63;;;2.30;;
63087;SDS011;49173;43.164;27.786;2022-09-28T00:17:45;3.47;;;2.25;;
63087;SDS011;49173;43.164;27.786;2022-09-28T00:20:10;4.60;;;2.15;;
63087;SDS011;49173;43.164;27.786;2022-09-28T00:22:37;4.50;;;2.78;;
63087;SDS011;49173;43.164;27.786;2022-09-28T00:25:04;5.53;;;2.60;;
63087;SDS011;49173;43.164;27.786;2022-09-28T00:27:30;3.15;;;2.50;;
63087;SDS011;49173;43.164;27.786;2022-09-28T00:29:56;3.67;;;2.40;;
63087;SDS011;49173;43.164;27.786;2022-09-28T00:32:22;3.13;;;2.35;;
63087;SDS011;49173;43.164;27.786;2022-09-28T00:34:49;3.63;;;2.55;;
63087;SDS011;49173;43.164;27.786;2022-09-28T00:37:16;4.40;;;2.22;;
63087;SDS011;49173;43.164;27.786;2022-09-28T00:39:43;3.45;;;2.28;;
63087;SDS011;49173;43.164;27.786;2022-09-28T00:42:19;4.28;;;2.42;;
63087;SDS011;49173;43.164;27.786;2022-09-28T00:44:54;4.47;;;2.40;;
63087;SDS011;49173;43.164;27.786;2022-09-28T00:50:25;3.97;;;2.40;;
63087;SDS011;49173;43.164;27.786;2022-09-28T00:55:54;6.10;;;2.60;;
63087;SDS011;49173;43.164;27.786;2022-09-28T00:58:31;3.67;;;2.47;;
63087;SDS011;49173;43.164;27.786;2022-09-28T01:01:00;3.08;;;2.03;;
63087;SDS011;49173;43.164;27.786;2022-09-28T01:03:27;3.25;;;1.95;;
63087;SDS011;49173;43.164;27.786;2022-09-28T01:05:54;2.90;;;1.80;;
63087;SDS011;49173;43.164;27.786;2022-09-28T01:08:22;2.92;;;1.58;;
63087;SDS011;49173;43.164;27.786;2022-09-28T01:10:52;4.05;;;1.50;;
63087;SDS011;49173;43.164;27.786;2022-09-28T01:13:18;3.35;;;1.50;;
63087;SDS011;49173;43.164;27.786;2022-09-28T01:15:52;2.92;;;1.35;;
63087;SDS011;49173;43.164;27.786;2022-09-28T01:21:15;2.30;;;1.25;;
63087;SDS011;49173;43.164;27.786;2022-09-28T01:29:55;2.15;;;1.20;;
63087;SDS011;49173;43.164;27.786;2022-09-28T01:35:20;2.40;;;1.35;;
63087;SDS011;49173;43.164;27.786;2022-09-28T01:37:59;2.38;;;1.48;;
63087;SDS011;49173;43.164;27.786;2022-09-28T01:40:31;2.60;;;1.33;;
63087;SDS011;49173;43.164;27.786;2022-09-28T01:43:05;2.80;;;1.20;;
63087;SDS011;49173;43.164;27.786;2022-09-28T01:45:48;2.57;;;1.30;;
63087;SDS011;49173;43.164;27.786;2022-09-28T01:48:25;5.00;;;1.30;;
63087;SDS011;49173;43.164;27.786;2022-09-28T01:50:57;2.20;;;1.20;;
63087;SDS011;49173;43.164;27.786;2022-09-28T01:53:36;4.50;;;1.58;;
63087;SDS011;49173;43.164;27.786;2022-09-28T01:56:08;2.55;;;1.60;;
63087;SDS011;49173;43.164;27.786;2022-09-28T01:58:45;3.50;;;1.77;;
63087;SDS011;49173;43.164;27.786;2022-09-28T02:01:58;3.25;;;1.77;;
63087;SDS011;49173;43.164;27.786;2022-09-28T02:04:11;4.65;;;2.13;;
63087;SDS011;49173;43.164;27.786;2022-09-28T02:06:45;3.63;;;2.03;;
63087;SDS011;49173;43.164;27.786;2022-09-28T02:09:18;2.78;;;1.52;;
63087;SDS011;49173;43.164;27.786;2022-09-28T02:11:54;2.85;;;1.48;;
63087;SDS011;49173;43.164;27.786;2022-09-28T02:14:24;3.42;;;1.85;;
63087;SDS011;49173;43.164;27.786;2022-09-28T02:16:52;4.15;;;1.98;;
63087;SDS011;49173;43.164;27.786;2022-09-28T02:19:22;3.45;;;1.77;;
63087;SDS011;49173;43.164;27.786;2022-09-28T02:21:55;3.15;;;1.73;;
63087;SDS011;49173;43.164;27.786;2022-09-28T02:24:36;3.35;;;1.60;;
63087;SDS011;49173;43.164;27.786;2022-09-28T02:27:12;3.05;;;1.48;;
63087;SDS011;49173;43.164;27.786;2022-09-28T02:29:46;3.70;;;1.40;;
63087;SDS011;49173;43.164;27.786;2022-09-28T02:32:12;2.13;;;1.45;;
63087;SDS011;49173;43.164;27.786;2022-09-28T02:34:39;3.65;;;1.50;;
63087;SDS011;49173;43.164;27.786;2022-09-28T02:37:05;3.60;;;1.65;;
63087;SDS011;49173;43.164;27.786;2022-09-28T02:39:30;2.40;;;1.55;;
63087;SDS011;49173;43.164;27.786;2022-09-28T02:50:45;2.58;;;1.55;;
63087;SDS011;49173;43.164;27.786;2022-09-28T02:59:16;3.95;;;1.50;;
63087;SDS011;49173;43.164;27.786;2022-09-28T03:02:18;3.13;;;1.60;;
63087;SDS011;49173;43.164;27.786;2022-09-28T03:07:32;4.53;;;2.08;;
63087;SDS011;49173;43.164;27.786;2022-09-28T03:10:11;4.63;;;2.10;;
63087;SDS011;49173;43.164;27.786;2022-09-28T03:13:04;3.75;;;1.80;;
63087;SDS011;49173;43.164;27.786;2022-09-28T03:15:32;5.30;;;2.58;;
63087;SDS011;49173;43.164;27.786;2022-09-28T03:18:00;5.60;;;2.50;;
63087;SDS011;49173;43.164;27.786;2022-09-28T03:20:27;6.50;;;2.67;;
63087;SDS011;49173;43.164;27.786;2022-09-28T03:22:54;6.05;;;2.60;;
63087;SDS011;49173;43.164;27.786;2022-09-28T03:25:20;7.10;;;2.30;;
63087;SDS011;49173;43.164;27.786;2022-09-28T03:27:46;6.30;;;2.63;;
63087;SDS011;49173;43.164;27.786;2022-09-28T03:30:12;3.35;;;2.65;;
63087;SDS011;49173;43.164;27.786;2022-09-28T03:32:38;4.13;;;2.75;;
63087;SDS011;49173;43.164;27.786;2022-09-28T03:35:05;3.25;;;2.50;;
63087;SDS011;49173;43.164;27.786;2022-09-28T03:37:31;6.72;;;3.38;;
63087;SDS011;49173;43.164;27.786;2022-09-28T03:39:57;6.30;;;3.88;;
63087;SDS011;49173;43.164;27.786;2022-09-28T03:42:23;5.20;;;3.35;;
63087;SDS011;49173;43.164;27.786;2022-09-28T03:44:49;6.22;;;4.20;;
63087;SDS011;49173;43.164;27.786;2022-09-28T03:47:15;7.68;;;4.15;;
63087;SDS011;49173;43.164;27.786;2022-09-28T03:49:42;9.57;;;5.18;;
63087;SDS011;49173;43.164;27.786;2022-09-28T03:52:08;8.48;;;4.75;;
63087;SDS011;49173;43.164;27.786;2022-09-28T03:54:34;10.63;;;6.00;;
63087;SDS011;49173;43.164;27.786;2022-09-28T03:57:00;10.18;;;6.25;;
63087;SDS011;49173;43.164;27.786;2022-09-28T03:59:25;13.00;;;7.25;;
63087;SDS011;49173;43.164;27.786;2022-09-28T04:01:51;7.50;;;5.60;;
63087;SDS011;49173;43.164;27.786;2022-09-28T04:04:17;10.13;;;5.75;;
63087;SDS011;49173;43.164;27.786;2022-09-28T04:06:43;9.05;;;5.43;;
63087;SDS011;49173;43.164;27.786;2022-09-28T04:09:09;6.90;;;5.32;;
63087;SDS011;49173;43.164;27.786;2022-09-28T04:11:35;11.18;;;5.60;;
63087;SDS011;49173;43.164;27.786;2022-09-28T04:14:01;8.27;;;4.97;;
63087;SDS011;49173;43.164;27.786;2022-09-28T04:16:27;6.80;;;5.13;;
63087;SDS011;49173;43.164;27.786;2022-09-28T04:18:53;8.30;;;5.60;;
63087;SDS011;49173;43.164;27.786;2022-09-28T04:21:19;7.93;;;5.75;;
63087;SDS011;49173;43.164;27.786;2022-09-28T04:23:45;6.13;;;3.70;;
63087;SDS011;49173;43.164;27.786;2022-09-28T04:26:17;4.70;;;3.33;;
63087;SDS011;49173;43.164;27.786;2022-09-28T04:28:45;5.40;;;3.30;;
63087;SDS011;49173;43.164;27.786;2022-09-28T04:31:35;4.90;;;3.17;;
63087;SDS011;49173;43.164;27.786;2022-09-28T04:34:03;7.82;;;3.83;;
63087;SDS011;49173;43.164;27.786;2022-09-28T04:36:28;5.85;;;3.33;;
63087;SDS011;49173;43.164;27.786;2022-09-28T04:38:54;5.15;;;2.30;;
63087;SDS011;49173;43.164;27.786;2022-09-28T04:41:20;5.95;;;2.20;;
63087;SDS011;49173;43.164;27.786;2022-09-28T04:43:49;2.63;;;1.90;;
63087;SDS011;49173;43.164;27.786;2022-09-28T04:46:15;3.90;;;2.03;;
63087;SDS011;49173;43.164;27.786;2022-09-28T04:48:41;3.20;;;2.13;;
63087;SDS011;49173;43.164;27.786;2022-09-28T04:51:06;4.68;;;1.80;;
63087;SDS011;49173;43.164;27.786;2022-09-28T04:53:32;7.18;;;1.90;;
63087;SDS011;49173;43.164;27.786;2022-09-28T04:56:00;4.55;;;2.25;;
63087;SDS011;49173;43.164;27.786;2022-09-28T04:58:33;3.45;;;1.95;;
63087;SDS011;49173;43.164;27.786;2022-09-28T05:01:00;5.53;;;1.85;;
63087;SDS011;49173;43.164;27.786;2022-09-28T05:03:28;3.13;;;2.00;;
63087;SDS011;49173;43.164;27.786;2022-09-28T05:05:54;3.35;;;2.20;;
63087;SDS011;49173;43.164;27.786;2022-09-28T05:08:19;5.65;;;2.40;;
63087;SDS011;49173;43.164;27.786;2022-09-28T05:10:45;5.25;;;2.70;;
63087;SDS011;49173;43.164;27.786;2022-09-28T05:13:12;5.28;;;2.78;;
63087;SDS011;49173;43.164;27.786;2022-09-28T05:15:39;4.28;;;2.60;;
63087;SDS011;49173;43.164;27.786;2022-09-28T05:18:06;5.88;;;2.50;;
63087;SDS011;49173;43.164;27.786;2022-09-28T05:20:33;4.65;;;2.42;;
63087;SDS011;49173;43.164;27.786;2022-09-28T05:23:04;5.43;;;3.05;;
63087;SDS011;49173;43.164;27.786;2022-09-28T05:25:30;3.72;;;2.35;;
63087;SDS011;49173;43.164;27.786;2022-09-28T05:27:56;4.38;;;2.60;;
63087;SDS011;49173;43.164;27.786;2022-09-28T05:30:22;3.78;;;2.40;;
63087;SDS011;49173;43.164;27.786;2022-09-28T05:32:48;2.97;;;1.95;;
63087;SDS011;49173;43.164;27.786;2022-09-28T05:35:17;5.32;;;2.50;;
63087;SDS011;49173;43.164;27.786;2022-09-28T05:37:43;5.05;;;2.30;;
63087;SDS011;49173;43.164;27.786;2022-09-28T05:40:09;7.20;;;2.75;;
63087;SDS011;49173;43.164;27.786;2022-09-28T05:42:36;6.93;;;3.67;;
63087;SDS011;49173;43.164;27.786;2022-09-28T05:45:01;9.18;;;3.50;;
63087;SDS011;49173;43.164;27.786;2022-09-28T05:47:28;6.60;;;3.45;;
63087;SDS011;49173;43.164;27.786;2022-09-28T05:49:54;7.55;;;3.63;;
63087;SDS011;49173;43.164;27.786;2022-09-28T05:52:20;7.57;;;3.80;;
63087;SDS011;49173;43.164;27.786;2022-09-28T05:54:46;5.63;;;3.72;;
63087;SDS011;49173;43.164;27.786;2022-09-28T05:57:12;7.13;;;3.40;;
63087;SDS011;49173;43.164;27.786;2022-09-28T05:59:39;6.28;;;3.00;;
63087;SDS011;49173;43.164;27.786;2022-09-28T06:02:05;3.60;;;2.30;;
63087;SDS011;49173;43.164;27.786;2022-09-28T06:04:31;5.35;;;2.50;;
63087;SDS011;49173;43.164;27.786;2022-09-28T06:06:57;3.10;;;2.03;;
63087;SDS011;49173;43.164;27.786;2022-09-28T06:09:23;4.85;;;2.70;;
63087;SDS011;49173;43.164;27.786;2022-09-28T06:11:50;4.00;;;2.67;;
63087;SDS011;49173;43.164;27.786;2022-09-28T06:14:16;8.00;;;3.20;;
63087;SDS011;49173;43.164;27.786;2022-09-28T06:16:42;8.52;;;4.07;;
63087;SDS011;49173;43.164;27.786;2022-09-28T06:19:09;11.23;;;7.57;;
63087;SDS011;49173;43.164;27.786;2022-09-28T06:21:36;12.95;;;6.45;;
63087;SDS011;49173;43.164;27.786;2022-09-28T06:24:02;7.35;;;4.88;;
63087;SDS011;49173;43.164;27.786;2022-09-28T06:26:29;6.70;;;3.35;;
63087;SDS011;49173;43.164;27.786;2022-09-28T06:28:55;4.43;;;2.67;;
63087;SDS011;49173;43.164;27.786;2022-09-28T06:31:21;3.92;;;2.60;;
63087;SDS011;49173;43.164;27.786;2022-09-28T06:33:50;4.75;;;2.80;;
63087;SDS011;49173;43.164;27.786;2022-09-28T06:36:17;5.05;;;2.63;;
63087;SDS011;49173;43.164;27.786;2022-09-28T06:38:44;5.55;;;3.10;;
63087;SDS011;49173;43.164;27.786;2022-09-28T06:41:10;4.85;;;3.50;;
63087;SDS011;49173;43.164;27.786;2022-09-28T06:43:36;4.35;;;3.28;;
63087;SDS011;49173;43.164;27.786;2022-09-28T06:46:04;6.50;;;3.50;;
63087;SDS011;49173;43.164;27.786;2022-09-28T06:48:32;8.73;;;3.90;;
63087;SDS011;49173;43.164;27.786;2022-09-28T06:50:58;6.07;;;4.07;;
63087;SDS011;49173;43.164;27.786;2022-09-28T06:53:25;5.35;;;4.10;;
63087;SDS011;49173;43.164;27.786;2022-09-28T06:55:53;5.70;;;4.30;;
63087;SDS011;49173;43.164;27.786;2022-09-28T06:58:20;7.70;;;3.80;;
63087;SDS011;49173;43.164;27.786;2022-09-28T07:00:47;7.28;;;3.92;;
63087;SDS011;49173;43.164;27.786;2022-09-28T07:03:16;7.63;;;4.07;;
63087;SDS011;49173;43.164;27.786;2022-09-28T07:05:50;7.60;;;4.10;;
63087;SDS011;49173;43.164;27.786;2022-09-28T07:08:19;6.05;;;3.97;;
63087;SDS011;49173;43.164;27.786;2022-09-28T07:10:49;7.00;;;3.35;;
63087;SDS011;49173;43.164;27.786;2022-09-28T07:13:21;9.20;;;4.03;;
63087;SDS011;49173;43.164;27.786;2022-09-28T07:15:48;5.72;;;3.92;;
63087;SDS011;49173;43.164;27.786;2022-09-28T07:18:21;5.28;;;3.75;;
63087;SDS011;49173;43.164;27.786;2022-09-28T07:20:47;6.63;;;3.72;;
63087;SDS011;49173;43.164;27.786;2022-09-28T07:23:13;7.53;;;3.10;;
63087;SDS011;49173;43.164;27.786;2022-09-28T07:25:39;5.05;;;3.05;;
63087;SDS011;49173;43.164;27.786;2022-09-28T07:28:10;8.70;;;3.75;;
63087;SDS011;49173;43.164;27.786;2022-09-28T07:30:36;7.18;;;3.70;;
63087;SDS011;49173;43.164;27.786;2022-09-28T07:33:03;7.35;;;3.40;;
63087;SDS011;49173;43.164;27.786;2022-09-28T07:35:30;5.57;;;3.38;;
63087;SDS011;49173;43.164;27.786;2022-09-28T07:38:08;6.47;;;3.22;;
63087;SDS011;49173;43.164;27.786;2022-09-28T07:40:35;5.13;;;2.72;;
63087;SDS011;49173;43.164;27.786;2022-09-28T07:43:20;5.40;;;2.95;;
63087;SDS011;49173;43.164;27.786;2022-09-28T07:45:46;5.20;;;2.63;;
63087;SDS011;49173;43.164;27.786;2022-09-28T07:48:14;5.45;;;2.60;;
63087;SDS011;49173;43.164;27.786;2022-09-28T07:50:47;7.68;;;3.45;;
63087;SDS011;49173;43.164;27.786;2022-09-28T07:53:18;5.93;;;2.75;;
63087;SDS011;49173;43.164;27.786;2022-09-28T07:55:51;6.80;;;3.25;;
63087;SDS011;49173;43.164;27.786;2022-09-28T07:58:16;4.95;;;3.20;;
63087;SDS011;49173;43.164;27.786;2022-09-28T08:00:43;7.53;;;2.95;;
63087;SDS011;49173;43.164;27.786;2022-09-28T08:03:11;4.63;;;2.60;;
63087;SDS011;49173;43.164;27.786;2022-09-28T08:05:37;3.20;;;2.28;;
63087;SDS011;49173;43.164;27.786;2022-09-28T08:08:03;4.15;;;2.28;;
63087;SDS011;49173;43.164;27.786;2022-09-28T08:10:29;4.03;;;2.00;;
63087;SDS011;49173;43.164;27.786;2022-09-28T08:12:56;4.47;;;1.63;;
63087;SDS011;49173;43.164;27.786;2022-09-28T08:15:25;2.85;;;1.67;;
63087;SDS011;49173;43.164;27.786;2022-09-28T08:17:51;3.78;;;1.70;;
63087;SDS011;49173;43.164;27.786;2022-09-28T08:20:17;3.42;;;1.58;;
63087;SDS011;49173;43.164;27.786;2022-09-28T08:23:03;3.00;;;1.58;;
63087;SDS011;49173;43.164;27.786;2022-09-28T08:25:29;2.60;;;1.55;;
63087;SDS011;49173;43.164;27.786;2022-09-28T08:27:56;3.70;;;1.50;;
63087;SDS011;49173;43.164;27.786;2022-09-28T08:30:21;2.78;;;1.42;;
63087;SDS011;49173;43.164;27.786;2022-09-28T08:32:47;2.97;;;1.50;;
63087;SDS011;49173;43.164;27.786;2022-09-28T08:35:13;3.70;;;1.60;;
63087;SDS011;49173;43.164;27.786;2022-09-28T08:37:39;4.47;;;1.50;;
63087;SDS011;49173;43.164;27.786;2022-09-28T08:40:08;3.00;;;1.50;;
63087;SDS011;49173;43.164;27.786;2022-09-28T08:42:41;4.68;;;1.48;;
63087;SDS011;49173;43.164;27.786;2022-09-28T08:45:10;4.00;;;1.90;;
63087;SDS011;49173;43.164;27.786;2022-09-28T08:56:05;4.75;;;2.33;;
63087;SDS011;49173;43.164;27.786;2022-09-28T08:58:36;3.28;;;2.20;;
63087;SDS011;49173;43.164;27.786;2022-09-28T09:01:07;4.72;;;2.17;;
63087;SDS011;49173;43.164;27.786;2022-09-28T09:03:40;4.57;;;2.08;;
63087;SDS011;49173;43.164;27.786;2022-09-28T09:06:21;2.65;;;1.75;;
63087;SDS011;49173;43.164;27.786;2022-09-28T09:17:13;3.53;;;1.70;;
63087;SDS011;49173;43.164;27.786;2022-09-28T09:19:52;3.90;;;1.40;;
63087;SDS011;49173;43.164;27.786;2022-09-28T09:22:57;4.90;;;1.63;;
63087;SDS011;49173;43.164;27.786;2022-09-28T09:25:40;4.25;;;1.65;;
63087;SDS011;49173;43.164;27.786;2022-09-28T09:52:53;3.53;;;1.30;;
63087;SDS011;49173;43.164;27.786;2022-09-28T09:55:35;4.47;;;1.40;;
63087;SDS011;49173;43.164;27.786;2022-09-28T09:58:10;2.72;;;1.27;;
63087;SDS011;49173;43.164;27.786;2022-09-28T10:00:41;4.38;;;1.48;;
63087;SDS011;49173;43.164;27.786;2022-09-28T10:03:16;5.97;;;1.13;;
63087;SDS011;49173;43.164;27.786;2022-09-28T10:05:57;2.60;;;1.02;;
63087;SDS011;49173;43.164;27.786;2022-09-28T10:08:26;4.10;;;1.20;;
63087;SDS011;49173;43.164;27.786;2022-09-28T10:11:16;5.43;;;1.40;;
63087;SDS011;49173;43.164;27.786;2022-09-28T10:13:47;3.58;;;1.25;;
63087;SDS011;49173;43.164;27.786;2022-09-28T10:16:14;5.78;;;1.30;;
63087;SDS011;49173;43.164;27.786;2022-09-28T10:21:14;2.72;;;1.00;;
63087;SDS011;49173;43.164;27.786;2022-09-28T10:23:42;3.78;;;1.55;;
63087;SDS011;49173;43.164;27.786;2022-09-28T10:26:17;2.13;;;1.02;;
63087;SDS011;49173;43.164;27.786;2022-09-28T10:28:58;3.67;;;1.10;;
63087;SDS011;49173;43.164;27.786;2022-09-28T10:34:02;4.68;;;1.17;;
63087;SDS011;49173;43.164;27.786;2022-09-28T10:36:30;3.97;;;1.10;;
63087;SDS011;49173;43.164;27.786;2022-09-28T10:39:18;4.00;;;1.10;;
63087;SDS011;49173;43.164;27.786;2022-09-28T10:41:50;2.85;;;1.13;;
63087;SDS011;49173;43.164;27.786;2022-09-28T10:44:16;3.30;;;1.17;;
63087;SDS011;49173;43.164;27.786;2022-09-28T10:46:45;4.38;;;1.25;;
63087;SDS011;49173;43.164;27.786;2022-09-28T10:49:21;6.05;;;1.00;;
63087;SDS011;49173;43.164;27.786;2022-09-28T10:51:51;2.17;;;1.00;;
63087;SDS011;49173;43.164;27.786;2022-09-28T10:54:26;3.10;;;1.05;;
63087;SDS011;49173;43.164;27.786;2022-09-28T10:56:54;8.65;;;1.35;;
63087;SDS011;49173;43.164;27.786;2022-09-28T11:04:51;2.88;;;1.30;;
63087;SDS011;49173;43.164;27.786;2022-09-28T11:07:21;4.60;;;1.10;;
63087;SDS011;49173;43.164;27.786;2022-09-28T11:09:50;2.08;;;0.93;;
63087;SDS011;49173;43.164;27.786;2022-09-28T11:12:19;4.65;;;1.23;;
63087;SDS011;49173;43.164;27.786;2022-09-28T11:22:49;4.60;;;1.30;;
63087;SDS011;49173;43.164;27.786;2022-09-28T11:25:24;4.53;;;1.10;;
63087;SDS011;49173;43.164;27.786;2022-09-28T11:30:30;3.20;;;1.30;;
63087;SDS011;49173;43.164;27.786;2022-09-28T11:33:37;3.35;;;1.05;;
63087;SDS011;49173;43.164;27.786;2022-09-28T11:38:46;5.20;;;1.00;;
63087;SDS011;49173;43.164;27.786;2022-09-28T11:51:44;4.28;;;1.20;;
63087;SDS011;49173;43.164;27.786;2022-09-28T11:56:53;3.38;;;1.17;;
63087;SDS011;49173;43.164;27.786;2022-09-28T11:59:25;4.07;;;1.05;;
63087;SDS011;49173;43.164;27.786;2022-09-28T12:01:56;5.03;;;1.10;;
63087;SDS011;49173;43.164;27.786;2022-09-28T12:07:29;7.45;;;1.25;;
63087;SDS011;49173;43.164;27.786;2022-09-28T12:09:58;3.25;;;1.05;;
63087;SDS011;49173;43.164;27.786;2022-09-28T12:12:36;3.30;;;1.00;;
63087;SDS011;49173;43.164;27.786;2022-09-28T12:15:20;2.80;;;1.20;;
63087;SDS011;49173;43.164;27.786;2022-09-28T12:17:53;3.58;;;1.35;;
63087;SDS011;49173;43.164;27.786;2022-09-28T12:23:56;2.28;;;0.80;;
63087;SDS011;49173;43.164;27.786;2022-09-28T12:29:38;4.95;;;1.20;;
63087;SDS011;49173;43.164;27.786;2022-09-28T12:32:11;3.90;;;0.98;;
63087;SDS011;49173;43.164;27.786;2022-09-28T12:35:02;3.75;;;1.17;;
63087;SDS011;49173;43.164;27.786;2022-09-28T12:46:12;2.83;;;0.90;;
63087;SDS011;49173;43.164;27.786;2022-09-28T12:49:20;3.28;;;1.05;;
63087;SDS011;49173;43.164;27.786;2022-09-28T12:51:57;2.22;;;0.88;;
63087;SDS011;49173;43.164;27.786;2022-09-28T13:11:45;5.95;;;1.10;;
63087;SDS011;49173;43.164;27.786;2022-09-28T13:20:46;3.05;;;0.90;;
63087;SDS011;49173;43.164;27.786;2022-09-28T13:25:37;5.10;;;1.27;;
63087;SDS011;49173;43.164;27.786;2022-09-28T13:28:05;5.18;;;1.10;;
63087;SDS011;49173;43.164;27.786;2022-09-28T13:30:32;2.97;;;1.10;;
63087;SDS011;49173;43.164;27.786;2022-09-28T13:35:28;2.15;;;0.90;;
63087;SDS011;49173;43.164;27.786;2022-09-28T13:43:33;4.60;;;1.10;;
63087;SDS011;49173;43.164;27.786;2022-09-28T13:46:32;5.30;;;1.10;;
63087;SDS011;49173;43.164;27.786;2022-09-28T13:59:52;6.10;;;1.33;;
63087;SDS011;49173;43.164;27.786;2022-09-28T14:02:32;5.82;;;1.02;;
63087;SDS011;49173;43.164;27.786;2022-09-28T14:10:50;6.13;;;0.93;;
63087;SDS011;49173;43.164;27.786;2022-09-28T14:18:55;3.10;;;0.95;;
63087;SDS011;49173;43.164;27.786;2022-09-28T14:30:40;10.02;;;2.38;;
63087;SDS011;49173;43.164;27.786;2022-09-28T14:32:55;10.75;;;2.35;;
63087;SDS011;49173;43.164;27.786;2022-09-28T14:35:25;8.13;;;2.33;;
63087;SDS011;49173;43.164;27.786;2022-09-28T14:37:59;6.05;;;2.20;;
63087;SDS011;49173;43.164;27.786;2022-09-28T14:48:42;7.47;;;2.20;;
63087;SDS011;49173;43.164;27.786;2022-09-28T14:56:45;9.35;;;2.40;;
63087;SDS011;49173;43.164;27.786;2022-09-28T15:01:52;7.57;;;2.47;;
63087;SDS011;49173;43.164;27.786;2022-09-28T15:04:37;6.10;;;2.67;;
63087;SDS011;49173;43.164;27.786;2022-09-28T15:07:41;6.20;;;2.45;;
63087;SDS011;49173;43.164;27.786;2022-09-28T15:10:53;7.15;;;2.95;;
63087;SDS011;49173;43.164;27.786;2022-09-28T15:15:48;7.88;;;2.97;;
63087;SDS011;49173;43.164;27.786;2022-09-28T15:18:55;6.10;;;2.87;;
63087;SDS011;49173;43.164;27.786;2022-09-28T15:21:43;8.70;;;2.80;;
63087;SDS011;49173;43.164;27.786;2022-09-28T15:24:28;7.37;;;2.90;;
63087;SDS011;49173;43.164;27.786;2022-09-28T15:26:56;5.30;;;2.60;;
63087;SDS011;49173;43.164;27.786;2022-09-28T15:29:23;7.00;;;2.60;;
63087;SDS011;49173;43.164;27.786;2022-09-28T15:31:52;4.72;;;2.70;;
63087;SDS011;49173;43.164;27.786;2022-09-28T15:34:34;7.18;;;3.10;;
63087;SDS011;49173;43.164;27.786;2022-09-28T15:37:17;5.10;;;2.47;;
63087;SDS011;49173;43.164;27.786;2022-09-28T15:39:46;9.80;;;3.28;;
63087;SDS011;49173;43.164;27.786;2022-09-28T15:42:14;6.38;;;3.10;;
63087;SDS011;49173;43.164;27.786;2022-09-28T15:44:53;7.90;;;3.55;;
63087;SDS011;49173;43.164;27.786;2022-09-28T15:47:26;8.02;;;2.95;;
63087;SDS011;49173;43.164;27.786;2022-09-28T15:50:19;7.20;;;3.20;;
63087;SDS011;49173;43.164;27.786;2022-09-28T15:52:59;5.95;;;3.10;;
63087;SDS011;49173;43.164;27.786;2022-09-28T15:58:15;6.93;;;3.10;;
63087;SDS011;49173;43.164;27.786;2022-09-28T16:00:46;7.05;;;3.10;;
63087;SDS011;49173;43.164;27.786;2022-09-28T16:05:51;5.93;;;3.47;;
63087;SDS011;49173;43.164;27.786;2022-09-28T16:10:56;7.22;;;3.47;;
63087;SDS011;49173;43.164;27.786;2022-09-28T16:13:23;8.93;;;3.60;;
63087;SDS011;49173;43.164;27.786;2022-09-28T16:15:56;9.25;;;3.45;;
63087;SDS011;49173;43.164;27.786;2022-09-28T16:18:24;9.05;;;3.72;;
63087;SDS011;49173;43.164;27.786;2022-09-28T16:20:53;10.65;;;3.80;;
63087;SDS011;49173;43.164;27.786;2022-09-28T16:23:22;7.93;;;4.28;;
63087;SDS011;49173;43.164;27.786;2022-09-28T16:26:01;6.95;;;3.40;;
63087;SDS011;49173;43.164;27.786;2022-09-28T16:33:30;8.73;;;3.55;;
63087;SDS011;49173;43.164;27.786;2022-09-28T16:36:04;8.43;;;3.83;;
63087;SDS011;49173;43.164;27.786;2022-09-28T16:38:36;8.18;;;3.67;;
63087;SDS011;49173;43.164;27.786;2022-09-28T16:41:02;9.15;;;4.78;;
63087;SDS011;49173;43.164;27.786;2022-09-28T16:43:29;10.40;;;4.25;;
63087;SDS011;49173;43.164;27.786;2022-09-28T16:46:00;7.30;;;4.32;;
63087;SDS011;49173;43.164;27.786;2022-09-28T16:48:34;16.20;;;4.40;;
63087;SDS011;49173;43.164;27.786;2022-09-28T16:51:16;14.00;;;4.53;;
63087;SDS011;49173;43.164;27.786;2022-09-28T16:53:43;11.85;;;4.40;;
63087;SDS011;49173;43.164;27.786;2022-09-28T16:56:38;10.30;;;4.10;;
63087;SDS011;49173;43.164;27.786;2022-09-28T16:59:04;9.30;;;4.15;;
63087;SDS011;49173;43.164;27.786;2022-09-28T17:01:30;10.80;;;3.85;;
63087;SDS011;49173;43.164;27.786;2022-09-28T17:03:57;10.05;;;4.35;;
63087;SDS011;49173;43.164;27.786;2022-09-28T17:06:22;9.20;;;4.05;;
63087;SDS011;49173;43.164;27.786;2022-09-28T17:08:54;12.23;;;3.90;;
63087;SDS011;49173;43.164;27.786;2022-09-28T17:11:20;8.60;;;4.20;;
63087;SDS011;49173;43.164;27.786;2022-09-28T17:13:46;7.93;;;3.85;;
63087;SDS011;49173;43.164;27.786;2022-09-28T17:16:13;9.30;;;4.32;;
63087;SDS011;49173;43.164;27.786;2022-09-28T17:18:42;8.95;;;4.60;;
63087;SDS011;49173;43.164;27.786;2022-09-28T17:21:12;8.77;;;4.10;;
63087;SDS011;49173;43.164;27.786;2022-09-28T17:23:43;11.88;;;3.72;;
63087;SDS011;49173;43.164;27.786;2022-09-28T17:26:23;6.95;;;4.00;;
63087;SDS011;49173;43.164;27.786;2022-09-28T17:28:54;7.65;;;3.88;;
63087;SDS011;49173;43.164;27.786;2022-09-28T17:31:24;7.63;;;3.85;;
63087;SDS011;49173;43.164;27.786;2022-09-28T17:33:50;9.43;;;3.92;;
63087;SDS011;49173;43.164;27.786;2022-09-28T17:36:16;13.23;;;3.97;;
63087;SDS011;49173;43.164;27.786;2022-09-28T17:38:46;14.68;;;4.72;;
63087;SDS011;49173;43.164;27.786;2022-09-28T17:41:13;8.65;;;4.00;;
63087;SDS011;49173;43.164;27.786;2022-09-28T17:43:40;12.00;;;3.83;;
63087;SDS011;49173;43.164;27.786;2022-09-28T17:46:14;9.80;;;4.00;;
63087;SDS011;49173;43.164;27.786;2022-09-28T17:48:51;7.10;;;4.10;;
63087;SDS011;49173;43.164;27.786;2022-09-28T17:51:17;7.30;;;4.00;;
63087;SDS011;49173;43.164;27.786;2022-09-28T17:53:43;8.38;;;4.07;;
63087;SDS011;49173;43.164;27.786;2022-09-28T17:56:09;10.18;;;4.32;;
63087;SDS011;49173;43.164;27.786;2022-09-28T17:58:35;9.98;;;3.72;;
63087;SDS011;49173;43.164;27.786;2022-09-28T18:01:02;8.00;;;4.00;;
63087;SDS011;49173;43.164;27.786;2022-09-28T18:03:28;8.60;;;4.28;;
63087;SDS011;49173;43.164;27.786;2022-09-28T18:05:58;8.55;;;4.38;;
63087;SDS011;49173;43.164;27.786;2022-09-28T18:08:27;11.98;;;4.20;;
63087;SDS011;49173;43.164;27.786;2022-09-28T18:10:54;5.93;;;3.83;;
63087;SDS011;49173;43.164;27.786;2022-09-28T18:13:21;8.02;;;3.70;;
63087;SDS011;49173;43.164;27.786;2022-09-28T18:15:51;10.73;;;4.57;;
63087;SDS011;49173;43.164;27.786;2022-09-28T18:18:18;8.30;;;4.03;;
63087;SDS011;49173;43.164;27.786;2022-09-28T18:20:44;10.18;;;4.28;;
63087;SDS011;49173;43.164;27.786;2022-09-28T18:23:10;7.82;;;4.13;;
63087;SDS011;49173;43.164;27.786;2022-09-28T18:25:40;9.93;;;4.22;;
63087;SDS011;49173;43.164;27.786;2022-09-28T18:28:07;9.93;;;4.38;;
63087;SDS011;49173;43.164;27.786;2022-09-28T18:30:37;6.13;;;3.70;;
63087;SDS011;49173;43.164;27.786;2022-09-28T18:33:05;6.50;;;4.03;;
63087;SDS011;49173;43.164;27.786;2022-09-28T18:35:34;8.52;;;3.95;;
63087;SDS011;49173;43.164;27.786;2022-09-28T18:38:02;8.20;;;4.03;;
63087;SDS011;49173;43.164;27.786;2022-09-28T18:40:30;10.63;;;3.92;;
63087;SDS011;49173;43.164;27.786;2022-09-28T18:42:57;9.63;;;3.80;;